Portada
METAR-TAF:

METAR-TAF

Aeroports :

Winchester, Tennessee, Estats Units d'Amèrica

latitud: 35-10-39N, longitud: 086-03-58W, altitud: 298 m

Observació

L'informe es va fer fa 11 minuts, a les 01:35 UTC
Vent 5 kt del Sud/Sud-Est
Temperatura 19°C
Humitat 100%
Pressió 1019 hPa
Visibilitat: 16.1 km
Cel ennuvolat a una alçada de 2200 ft
Cel cobert a una alçada de 3200 ft

METAR: KBGF 180135Z AUTO 15005KT 10SM BKN022 OVC032 19/19 A3008 RMK A01

Hora: 20:46 (01:46 UTC)


TAF: manca

Observacions i pronòstics meteorològics de més de 4000 aeroports (METAR i TAF).

Les estacions disponibles són els punts grocs i vermells al mapa.

Posi el ratolí al punt desitjat per veure el nom de l'estació.

Feu clic per veure les observacions i els pronòstics meteorològics.

Per canviar el mapa: feu clic els botons verds amb una creu de color negre per apropar; al botó verd amb un guió per allunyar la imatge; o en les fletxes verdes per a mapes adjacents.


METAR-TAF: